Time;durP1;ratioP1;P1;durP2;ratioP2;P2;SDS_P1;SDS_P2;PMS_P1;PMS_P2;Temp;Humidity;BMP_temperature;BMP_pressure;BME280_temperature;BME280_humidity;BME280_pressure;Samples;Min_cycle;Max_cycle;Signal;HPM_P1;HPM_P2
2022/09/11 00:00:38;;;;;;;0.20;0.20;;;16.70;99.90;;;;;;5009810;28;20046;-73
2022/09/11 00:03:03;;;;;;;0.10;0.10;;;16.80;99.90;;;;;;5010604;28;20501;-72
2022/09/11 00:05:30;;;;;;;0.15;0.15;;;16.80;99.90;;;;;;5011140;28;20136;-72
2022/09/11 00:07:56;;;;;;;0.65;0.65;;;16.80;99.90;;;;;;5007862;28;20129;-72
2022/09/11 00:10:23;;;;;;;0.20;0.20;;;16.70;99.90;;;;;;5010340;28;20076;-72
2022/09/11 00:12:49;;;;;;;0.20;0.20;;;16.70;99.90;;;;;;5010872;28;20125;-72
2022/09/11 00:15:15;;;;;;;0.05;0.05;;;16.70;99.90;;;;;;5006582;28;20132;-72
2022/09/11 00:17:41;;;;;;;0.30;0.30;;;16.60;99.90;;;;;;5010070;28;20117;-72
2022/09/11 00:20:07;;;;;;;0.17;0.17;;;16.60;99.90;;;;;;5008894;28;20055;-72
2022/09/11 00:22:32;;;;;;;0.00;0.00;;;16.60;99.90;;;;;;5010045;28;20052;-72
2022/09/11 00:24:58;;;;;;;0.10;0.10;;;16.60;99.90;;;;;;5010105;28;20046;-72
2022/09/11 00:27:24;;;;;;;6.32;1.08;;;16.60;99.90;;;;;;4992587;28;20490;-72
2022/09/11 00:29:49;;;;;;;0.22;0.20;;;16.50;99.90;;;;;;4989199;28;20093;-72
2022/09/11 00:32:15;;;;;;;0.15;0.15;;;16.50;99.90;;;;;;4998476;28;20092;-72
2022/09/11 00:34:41;;;;;;;0.22;0.22;;;16.50;99.90;;;;;;5006328;28;20057;-72
2022/09/11 00:37:08;;;;;;;0.17;0.17;;;16.40;99.90;;;;;;5009428;28;20038;-72
2022/09/11 00:39:34;;;;;;;0.10;0.10;;;16.50;99.90;;;;;;5006299;28;20139;-72
2022/09/11 00:41:59;;;;;;;0.20;0.20;;;16.40;99.90;;;;;;4992313;28;20046;-72
2022/09/11 00:44:25;;;;;;;0.05;0.05;;;16.40;99.90;;;;;;4994617;28;20533;-72
2022/09/11 00:47:04;;;;;;;0.10;0.10;;;16.30;99.90;;;;;;4994589;28;20050;-72
2022/09/11 00:49:44;;;;;;;0.75;0.75;;;16.30;99.90;;;;;;4992301;28;20505;-72
2022/09/11 00:52:23;;;;;;;1.38;0.63;;;16.20;99.90;;;;;;4994245;28;20165;-72
2022/09/11 00:55:04;;;;;;;0.38;0.38;;;16.20;99.90;;;;;;4993501;28;20097;-72
2022/09/11 00:57:35;;;;;;;1.08;0.95;;;16.10;99.90;;;;;;4991214;28;20073;-72
2022/09/11 01:00:03;;;;;;;0.00;0.00;;;16.10;99.90;;;;;;4994701;28;20042;-72
2022/09/11 01:02:32;;;;;;;0.80;0.80;;;16.10;99.90;;;;;;5010378;28;20115;-72
2022/09/11 01:04:58;;;;;;;0.63;0.63;;;16.10;99.90;;;;;;5011063;28;20053;-72
2022/09/11 01:07:27;;;;;;;0.22;0.22;;;16.00;99.90;;;;;;4992343;28;20042;-72
2022/09/11 01:09:54;;;;;;;0.80;0.63;;;16.00;99.90;;;;;;4994580;28;20087;-71
2022/09/11 01:12:42;;;;;;;0.10;0.10;;;16.00;99.90;;;;;;4995570;28;20379;-71
2022/09/11 01:15:25;;;;;;;0.70;0.70;;;16.00;99.90;;;;;;5013284;28;20405;-71
2022/09/11 01:18:06;;;;;;;0.10;0.10;;;16.00;99.90;;;;;;5000292;28;20046;-71
2022/09/11 01:20:46;;;;;;;0.35;0.15;;;16.00;99.90;;;;;;4993907;28;20061;-71
2022/09/11 01:23:30;;;;;;;15.88;0.50;;;16.00;99.90;;;;;;4993739;28;20051;-71
2022/09/11 01:26:31;;;;;;;0.10;0.10;;;15.90;99.90;;;;;;5005264;28;20064;-71
2022/09/11 01:29:16;;;;;;;0.20;0.20;;;15.90;99.90;;;;;;5013528;28;20486;-71
2022/09/11 01:32:06;;;;;;;0.00;0.00;;;15.90;99.90;;;;;;4996710;28;20108;-71
2022/09/11 01:34:34;;;;;;;0.10;0.10;;;15.90;99.90;;;;;;5010149;28;20525;-71
2022/09/11 01:37:06;;;;;;;2.20;0.38;;;15.80;99.90;;;;;;5011847;28;20041;-72
2022/09/11 01:39:41;;;;;;;0.15;0.15;;;15.90;99.90;;;;;;5011317;28;20521;-71
2022/09/11 01:42:13;;;;;;;0.17;0.17;;;15.80;99.90;;;;;;5011056;28;20061;-72
2022/09/11 01:44:49;;;;;;;0.55;0.55;;;15.80;99.90;;;;;;5010952;28;20052;-72
2022/09/11 01:47:18;;;;;;;0.00;0.00;;;15.80;99.90;;;;;;5012131;28;20104;-72
2022/09/11 01:50:00;;;;;;;0.10;0.10;;;15.70;99.90;;;;;;5009829;28;20045;-72
2022/09/11 01:52:35;;;;;;;0.10;0.10;;;15.70;99.90;;;;;;5010209;28;20042;-72
2022/09/11 01:55:08;;;;;;;0.10;0.10;;;15.70;99.90;;;;;;5012849;28;20500;-71
2022/09/11 01:57:42;;;;;;;0.10;0.10;;;15.70;99.90;;;;;;5010489;28;20413;-71
2022/09/11 02:00:12;;;;;;;0.30;0.30;;;15.70;99.90;;;;;;5011605;28;20065;-71
2022/09/11 02:02:51;;;;;;;0.00;0.00;;;15.60;99.90;;;;;;5010129;28;20133;-72
2022/09/11 02:05:24;;;;;;;0.10;0.10;;;15.60;99.90;;;;;;4992832;28;20042;-72
2022/09/11 02:08:01;;;;;;;0.08;0.08;;;15.50;99.90;;;;;;4992405;28;20410;-72
2022/09/11 02:10:47;;;;;;;0.10;0.10;;;15.60;99.90;;;;;;4991735;28;20045;-72
2022/09/11 02:13:28;;;;;;;0.00;0.00;;;15.40;99.90;;;;;;4992652;28;20096;-71
2022/09/11 02:16:01;;;;;;;0.28;0.28;;;15.50;99.90;;;;;;5001007;28;20050;-71
2022/09/11 02:18:33;;;;;;;;;;;15.40;99.90;;;;;;5012784;28;20052;-71
2022/09/11 02:20:59;;;;;;;0.00;0.00;;;15.50;99.90;;;;;;5008803;28;19960;-71
2022/09/11 02:23:24;;;;;;;0.63;0.45;;;15.50;99.90;;;;;;5012494;28;20509;-72
2022/09/11 02:25:50;;;;;;;0.22;0.22;;;15.50;99.90;;;;;;4996932;28;20042;-72
2022/09/11 02:28:16;;;;;;;0.20;0.20;;;15.40;99.90;;;;;;4992052;28;20105;-71
2022/09/11 02:30:42;;;;;;;0.10;0.10;;;15.40;99.90;;;;;;4993466;28;20072;-71
2022/09/11 02:33:29;;;;;;;0.25;0.25;;;15.40;99.90;;;;;;4992528;28;20046;-72
2022/09/11 02:36:23;;;;;;;0.20;0.20;;;15.40;99.90;;;;;;4991749;28;21375;-71
2022/09/11 02:39:07;;;;;;;0.10;0.10;;;15.40;99.90;;;;;;4991618;28;20057;-71
2022/09/11 02:41:40;;;;;;;0.90;0.35;;;15.40;99.90;;;;;;5009279;28;20490;-72
2022/09/11 02:44:44;;;;;;;0.15;0.15;;;15.40;99.90;;;;;;5012235;28;20048;-72
2022/09/11 02:47:18;;;;;;;;;;;15.30;99.90;;;;;;4990024;28;20064;-72
2022/09/11 02:50:09;;;;;;;0.22;0.22;;;15.30;99.90;;;;;;5012007;28;19932;-71
2022/09/11 02:52:44;;;;;;;0.10;0.10;;;15.30;99.90;;;;;;5012528;28;20054;-72
2022/09/11 02:55:21;;;;;;;0.43;0.22;;;15.30;99.90;;;;;;5008637;28;20096;-71
2022/09/11 02:58:01;;;;;;;0.10;0.10;;;15.20;99.90;;;;;;5011359;28;20549;-72
2022/09/11 03:00:27;;;;;;;0.10;0.10;;;15.20;99.90;;;;;;5010090;28;20053;-72
2022/09/11 03:02:53;;;;;;;0.25;0.25;;;15.20;99.90;;;;;;4991408;28;20058;-71
2022/09/11 03:05:20;;;;;;;0.10;0.10;;;15.20;99.90;;;;;;4991338;28;20088;-71
2022/09/11 03:07:45;;;;;;;0.43;0.43;;;15.20;99.90;;;;;;4989775;28;20058;-71
2022/09/11 03:10:11;;;;;;;0.82;0.63;;;15.20;99.90;;;;;;4989625;28;20034;-71
2022/09/11 03:12:37;;;;;;;0.10;0.10;;;15.30;99.90;;;;;;4992102;28;20046;-71
2022/09/11 03:15:04;;;;;;;0.85;0.77;;;15.30;99.90;;;;;;4990942;28;20054;-71
2022/09/11 03:17:31;;;;;;;0.25;0.15;;;15.20;99.90;;;;;;4990457;28;20495;-71
2022/09/11 03:19:56;;;;;;;0.08;0.08;;;15.10;99.90;;;;;;4992132;28;20054;-71
2022/09/11 03:22:22;;;;;;;0.10;0.10;;;15.10;99.90;;;;;;4991144;28;20051;-72
2022/09/11 03:24:48;;;;;;;0.38;0.17;;;15.10;99.90;;;;;;4988357;28;20077;-71
2022/09/11 03:27:13;;;;;;;0.00;0.00;;;15.10;99.90;;;;;;4991100;28;20046;-71
2022/09/11 03:29:39;;;;;;;2.17;0.30;;;15.10;99.90;;;;;;4991889;28;20050;-71
2022/09/11 03:32:05;;;;;;;0.20;0.20;;;15.10;99.90;;;;;;4997376;28;20135;-72
2022/09/11 03:34:30;;;;;;;0.10;0.10;;;15.10;99.90;;;;;;5005880;28;20442;-71
2022/09/11 03:36:56;;;;;;;0.25;0.25;;;15.20;99.90;;;;;;5009919;28;20391;-71
2022/09/11 03:39:22;;;;;;;0.38;0.38;;;15.20;99.90;;;;;;5009649;28;20401;-71
2022/09/11 03:41:47;;;;;;;0.43;0.43;;;15.20;99.90;;;;;;5008785;28;20421;-72
2022/09/11 03:44:13;;;;;;;0.00;0.00;;;15.20;99.90;;;;;;5010717;28;20512;-71
2022/09/11 03:46:38;;;;;;;0.20;0.20;;;15.20;99.90;;;;;;4989032;28;20050;-72
2022/09/11 03:49:05;;;;;;;0.20;0.20;;;15.20;99.90;;;;;;4991280;28;20379;-72
2022/09/11 03:51:31;;;;;;;0.40;0.40;;;15.20;99.90;;;;;;4989080;28;20589;-72
2022/09/11 03:54:00;;;;;;;0.00;0.00;;;15.10;99.90;;;;;;4990331;28;20145;-71
2022/09/11 03:56:27;;;;;;;0.40;0.40;;;15.10;99.90;;;;;;4990282;28;20428;-71
2022/09/11 03:58:58;;;;;;;0.13;0.13;;;15.00;99.90;;;;;;4989800;28;20042;-71
2022/09/11 04:01:25;;;;;;;0.10;0.10;;;15.00;99.90;;;;;;4990892;28;20455;-72
2022/09/11 04:03:51;;;;;;;0.20;0.20;;;14.90;99.90;;;;;;4995147;28;20037;-72
2022/09/11 04:06:17;;;;;;;0.50;0.45;;;15.00;99.90;;;;;;5009687;28;20057;-71
2022/09/11 04:08:42;;;;;;;0.08;0.08;;;14.90;99.90;;;;;;5010747;28;20044;-72
2022/09/11 04:11:10;;;;;;;0.32;0.20;;;14.90;99.90;;;;;;5008438;28;20096;-71
2022/09/11 04:13:37;;;;;;;0.30;0.30;;;14.90;99.90;;;;;;4990113;28;20034;-72
2022/09/11 04:16:09;;;;;;;1.25;1.17;;;14.90;99.90;;;;;;4996669;28;20056;-72
2022/09/11 04:18:37;;;;;;;0.20;0.20;;;14.90;99.90;;;;;;5014961;28;20081;-71
2022/09/11 04:21:04;;;;;;;0.20;0.20;;;14.80;99.90;;;;;;5013549;28;20092;-71
2022/09/11 04:23:30;;;;;;;0.45;0.20;;;14.80;99.90;;;;;;5005120;28;20046;-71
2022/09/11 04:25:55;;;;;;;0.30;0.30;;;14.70;99.90;;;;;;4995147;28;20042;-71
2022/09/11 04:28:22;;;;;;;2.08;0.52;;;14.70;99.90;;;;;;4992545;28;20132;-71
2022/09/11 04:30:48;;;;;;;0.30;0.30;;;14.70;99.90;;;;;;4993767;28;21879;-71
2022/09/11 04:33:13;;;;;;;0.10;0.10;;;14.70;99.90;;;;;;4995484;28;20560;-71
2022/09/11 04:35:39;;;;;;;0.10;0.10;;;14.70;99.90;;;;;;4995000;28;20135;-71
2022/09/11 04:38:06;;;;;;;0.40;0.40;;;14.60;99.90;;;;;;5013654;28;20050;-71
2022/09/11 04:40:32;;;;;;;0.10;0.10;;;14.60;99.90;;;;;;5011252;28;20049;-71
2022/09/11 04:42:59;;;;;;;0.17;0.17;;;14.50;99.90;;;;;;5013098;28;20041;-72
2022/09/11 04:45:25;;;;;;;0.00;0.00;;;14.60;99.90;;;;;;5014211;28;20048;-71
2022/09/11 04:47:51;;;;;;;0.10;0.10;;;14.50;99.90;;;;;;5011619;28;20046;-71
2022/09/11 04:50:17;;;;;;;0.73;0.73;;;14.50;99.90;;;;;;4993262;28;20406;-71
2022/09/11 04:52:46;;;;;;;0.10;0.10;;;14.40;99.90;;;;;;4994730;28;20100;-71
2022/09/11 04:55:11;;;;;;;0.30;0.30;;;14.30;99.90;;;;;;4993297;28;20052;-72
2022/09/11 04:57:37;;;;;;;0.30;0.30;;;14.30;99.90;;;;;;4993716;28;20429;-71
2022/09/11 05:00:05;;;;;;;0.25;0.25;;;14.30;99.90;;;;;;5013425;28;20053;-71
2022/09/11 05:02:31;;;;;;;0.35;0.35;;;14.30;99.90;;;;;;5013500;28;20065;-71
2022/09/11 05:04:57;;;;;;;0.20;0.20;;;14.30;99.90;;;;;;5011313;28;20050;-71
2022/09/11 05:07:24;;;;;;;0.10;0.10;;;14.40;99.90;;;;;;5013445;28;20389;-71
2022/09/11 05:09:53;;;;;;;0.35;0.35;;;14.40;99.90;;;;;;5010384;28;20128;-71
2022/09/11 05:12:19;;;;;;;0.30;0.30;;;14.40;99.90;;;;;;5010715;28;20049;-71
2022/09/11 05:14:44;;;;;;;0.10;0.10;;;14.40;99.90;;;;;;5012180;28;20050;-71
2022/09/11 05:17:12;;;;;;;0.10;0.10;;;14.40;99.90;;;;;;4994666;28;20137;-71
2022/09/11 05:19:39;;;;;;;0.10;0.10;;;14.40;99.90;;;;;;4994237;28;20201;-71
2022/09/11 05:22:07;;;;;;;0.10;0.10;;;14.40;99.90;;;;;;4994021;28;20449;-71
2022/09/11 05:24:33;;;;;;;0.10;0.10;;;14.40;99.90;;;;;;4992476;28;20045;-71
2022/09/11 05:26:59;;;;;;;0.38;0.38;;;14.40;99.90;;;;;;4992989;28;20047;-71
2022/09/11 05:29:28;;;;;;;0.10;0.10;;;14.30;99.90;;;;;;5003600;28;20370;-71
2022/09/11 05:31:55;;;;;;;0.20;0.20;;;14.40;99.90;;;;;;5012968;28;20056;-71
2022/09/11 05:34:21;;;;;;;0.00;0.00;;;14.40;99.90;;;;;;5005349;28;20035;-71
2022/09/11 05:36:47;;;;;;;0.00;0.00;;;14.30;99.90;;;;;;4993868;28;20045;-71
2022/09/11 05:39:12;;;;;;;0.10;0.10;;;14.30;99.90;;;;;;4992807;28;20038;-72
2022/09/11 05:41:38;;;;;;;0.43;0.43;;;14.30;99.90;;;;;;5006890;28;20045;-71
2022/09/11 05:44:03;;;;;;;0.08;0.08;;;14.40;99.90;;;;;;5011874;28;20508;-72
2022/09/11 05:46:29;;;;;;;0.43;0.43;;;14.40;99.90;;;;;;5012655;28;20042;-71
2022/09/11 05:48:55;;;;;;;0.30;0.30;;;14.40;99.90;;;;;;5008709;28;20049;-71
2022/09/11 05:51:21;;;;;;;0.10;0.10;;;14.40;99.90;;;;;;5012159;28;20520;-71
2022/09/11 05:53:47;;;;;;;0.20;0.20;;;14.40;99.90;;;;;;5013230;28;20065;-72
2022/09/11 05:56:19;;;;;;;0.47;0.47;;;14.40;99.90;;;;;;5012604;28;20054;-72
2022/09/11 05:58:46;;;;;;;0.32;0.32;;;14.40;99.90;;;;;;5009096;28;20117;-71
2022/09/11 06:01:18;;;;;;;1.15;0.82;;;14.40;99.90;;;;;;5011745;28;20062;-71
2022/09/11 06:03:46;;;;;;;0.10;0.10;;;14.50;99.90;;;;;;5013324;28;20046;-71
2022/09/11 06:06:12;;;;;;;0.40;0.40;;;14.50;99.90;;;;;;5008996;28;20054;-71
2022/09/11 06:08:41;;;;;;;0.15;0.15;;;14.60;99.90;;;;;;5011873;28;20038;-71
2022/09/11 06:11:07;;;;;;;0.10;0.10;;;14.60;99.90;;;;;;5004043;28;20053;-71
2022/09/11 06:13:35;;;;;;;0.25;0.25;;;14.60;99.90;;;;;;4991154;28;20126;-71
2022/09/11 06:16:01;;;;;;;0.20;0.20;;;14.70;99.90;;;;;;4992014;28;20050;-71
2022/09/11 06:18:28;;;;;;;0.77;0.77;;;14.80;99.90;;;;;;4992727;28;20046;-71
2022/09/11 06:20:58;;;;;;;0.20;0.20;;;14.80;99.90;;;;;;4991942;28;20565;-71
2022/09/11 06:23:24;;;;;;;0.10;0.10;;;14.80;99.90;;;;;;4999232;28;20406;-71
2022/09/11 06:25:53;;;;;;;0.00;0.00;;;14.90;99.90;;;;;;5012502;28;20045;-71
2022/09/11 06:28:22;;;;;;;0.10;0.10;;;14.90;99.90;;;;;;5011025;28;20145;-71
2022/09/11 06:30:51;;;;;;;0.10;0.10;;;15.00;99.90;;;;;;5009916;28;20077;-72
2022/09/11 06:33:20;;;;;;;0.10;0.10;;;15.10;99.90;;;;;;4996913;28;20112;-72
2022/09/11 06:35:57;;;;;;;0.00;0.00;;;15.10;99.90;;;;;;4990741;28;20053;-72
2022/09/11 06:38:23;;;;;;;0.10;0.10;;;15.20;99.90;;;;;;4991960;28;20487;-72
2022/09/11 06:40:49;;;;;;;0.50;0.50;;;15.20;99.90;;;;;;5004230;28;20052;-72
2022/09/11 06:43:15;;;;;;;0.17;0.17;;;15.30;99.90;;;;;;4992362;28;20054;-72
2022/09/11 06:45:41;;;;;;;0.00;0.00;;;15.40;99.90;;;;;;4992811;28;20483;-72
2022/09/11 06:48:06;;;;;;;0.20;0.20;;;15.40;99.90;;;;;;4991501;28;20053;-72
2022/09/11 06:50:39;;;;;;;0.10;0.10;;;15.40;99.90;;;;;;4996686;28;20054;-72
2022/09/11 06:53:05;;;;;;;0.08;0.08;;;15.50;99.90;;;;;;5011624;28;20050;-72
2022/09/11 06:55:31;;;;;;;0.00;0.00;;;15.50;99.90;;;;;;5011107;28;20501;-72
2022/09/11 06:57:57;;;;;;;0.00;0.00;;;15.60;99.90;;;;;;5009576;28;20065;-72
2022/09/11 07:00:22;;;;;;;0.10;0.10;;;15.60;99.90;;;;;;5010888;28;20054;-72
2022/09/11 07:02:48;;;;;;;0.10;0.10;;;15.70;99.90;;;;;;5010247;28;20050;-72
2022/09/11 07:05:13;;;;;;;0.10;0.10;;;15.70;99.90;;;;;;5008837;28;20137;-72
2022/09/11 07:07:40;;;;;;;0.30;0.30;;;15.80;99.90;;;;;;5011760;28;20042;-72
2022/09/11 07:10:06;;;;;;;0.05;0.05;;;15.90;99.90;;;;;;5010515;28;20050;-72
2022/09/11 07:12:32;;;;;;;0.43;0.43;;;15.90;99.90;;;;;;5009654;28;20042;-72
2022/09/11 07:14:57;;;;;;;0.10;0.10;;;16.00;99.90;;;;;;5011486;28;20042;-72
2022/09/11 07:17:23;;;;;;;0.10;0.10;;;16.00;99.90;;;;;;5010559;28;20060;-72
2022/09/11 07:19:49;;;;;;;0.10;0.10;;;16.10;99.90;;;;;;5011564;28;20387;-72
2022/09/11 07:22:14;;;;;;;0.10;0.10;;;16.10;99.90;;;;;;5007424;28;20486;-72
2022/09/11 07:24:40;;;;;;;0.10;0.10;;;16.20;99.90;;;;;;5011017;28;20061;-72
2022/09/11 07:27:06;;;;;;;0.00;0.00;;;16.20;99.90;;;;;;5008940;28;20060;-72
2022/09/11 07:29:31;;;;;;;0.00;0.00;;;16.30;99.90;;;;;;5010055;28;20407;-72
2022/09/11 07:31:57;;;;;;;0.00;0.00;;;16.30;99.90;;;;;;5008787;28;20561;-72
2022/09/11 07:34:23;;;;;;;0.00;0.00;;;16.30;99.90;;;;;;5011157;28;20037;-72
2022/09/11 07:36:50;;;;;;;0.32;0.32;;;16.40;99.90;;;;;;5011698;28;20486;-73
2022/09/11 07:39:16;;;;;;;0.00;0.00;;;16.50;99.90;;;;;;5010799;28;20046;-72
2022/09/11 07:41:42;;;;;;;0.05;0.05;;;16.60;99.90;;;;;;5004387;28;20556;-72
2022/09/11 07:44:07;;;;;;;0.10;0.10;;;16.60;99.90;;;;;;4990647;28;20141;-72
2022/09/11 07:46:34;;;;;;;0.20;0.20;;;16.60;99.90;;;;;;4991866;28;20501;-73
2022/09/11 07:49:01;;;;;;;0.15;0.15;;;16.80;99.90;;;;;;5005658;28;20054;-73
2022/09/11 07:51:28;;;;;;;0.00;0.00;;;16.80;99.90;;;;;;5009919;28;20053;-73
2022/09/11 07:53:56;;;;;;;0.00;0.00;;;16.90;99.90;;;;;;5011601;28;20045;-73
2022/09/11 07:56:24;;;;;;;0.20;0.20;;;17.00;99.90;;;;;;5011108;28;20053;-73
2022/09/11 07:58:51;;;;;;;0.20;0.20;;;17.00;99.90;;;;;;4992506;28;20129;-73
2022/09/11 08:01:21;;;;;;;0.00;0.00;;;17.10;99.90;;;;;;4990838;28;20058;-72
2022/09/11 08:03:48;;;;;;;0.10;0.10;;;17.10;99.90;;;;;;4991729;28;20065;-73
2022/09/11 08:06:16;;;;;;;0.00;0.00;;;17.10;99.90;;;;;;4989069;28;20046;-73
2022/09/11 08:08:42;;;;;;;0.08;0.08;;;17.20;99.90;;;;;;4991747;28;20080;-73
2022/09/11 08:11:11;;;;;;;0.30;0.22;;;17.30;99.90;;;;;;4997811;28;20089;-73
2022/09/11 08:13:37;;;;;;;0.00;0.00;;;17.30;99.90;;;;;;5008927;28;20073;-73
2022/09/11 08:16:04;;;;;;;0.00;0.00;;;17.40;99.90;;;;;;5007209;28;20049;-73
2022/09/11 08:18:30;;;;;;;0.00;0.00;;;17.50;99.90;;;;;;5005817;28;20735;-73
2022/09/11 08:21:04;;;;;;;0.10;0.10;;;17.60;99.90;;;;;;5009658;28;20042;-73
2022/09/11 08:23:32;;;;;;;0.15;0.15;;;17.60;99.90;;;;;;5010978;28;20037;-73
2022/09/11 08:26:13;;;;;;;0.10;0.10;;;17.70;99.90;;;;;;5004985;28;20054;-73
2022/09/11 08:28:41;;;;;;;0.00;0.00;;;17.70;99.90;;;;;;4991169;28;20054;-73
2022/09/11 08:31:08;;;;;;;0.20;0.20;;;17.90;99.90;;;;;;4997533;28;20050;-73
2022/09/11 08:33:34;;;;;;;0.85;0.85;;;17.90;99.90;;;;;;4995440;28;20042;-73
2022/09/11 08:36:02;;;;;;;6.63;0.90;;;18.00;99.90;;;;;;4990922;28;20045;-74
2022/09/11 08:38:28;;;;;;;0.00;0.00;;;18.00;99.90;;;;;;4990881;28;20042;-73
2022/09/11 08:40:56;;;;;;;0.13;0.13;;;18.10;99.90;;;;;;4993397;28;20046;-73
2022/09/11 08:43:26;;;;;;;0.00;0.00;;;18.20;99.90;;;;;;4988931;28;20047;-73
2022/09/11 08:45:57;;;;;;;0.10;0.10;;;18.20;99.90;;;;;;4991056;28;20046;-74
2022/09/11 08:48:36;;;;;;;0.00;0.00;;;18.30;99.90;;;;;;4987364;28;20054;-73
2022/09/11 08:51:03;;;;;;;0.10;0.10;;;18.30;99.90;;;;;;4989500;28;20553;-73
2022/09/11 08:53:31;;;;;;;0.00;0.00;;;18.40;99.90;;;;;;4990724;28;20491;-74
2022/09/11 08:56:06;;;;;;;0.00;0.00;;;18.40;99.90;;;;;;4990463;28;20054;-74
2022/09/11 08:58:50;;;;;;;0.00;0.00;;;18.40;99.90;;;;;;4990357;28;20088;-73
2022/09/11 09:01:30;;;;;;;0.10;0.10;;;18.60;99.90;;;;;;5007651;28;20073;-73
2022/09/11 09:04:15;;;;;;;0.03;0.03;;;18.70;99.90;;;;;;5014816;28;20128;-73
2022/09/11 09:07:01;;;;;;;0.00;0.00;;;18.70;99.90;;;;;;5014693;28;20089;-73
2022/09/11 09:09:50;;;;;;;0.00;0.00;;;19.30;99.90;;;;;;5011076;28;20042;-73
2022/09/11 09:12:21;;;;;;;0.20;0.20;;;19.30;99.90;;;;;;5012320;28;20128;-73
2022/09/11 09:15:06;;;;;;;2.20;0.20;;;19.30;99.90;;;;;;5014277;28;20088;-73
2022/09/11 09:17:46;;;;;;;0.22;0.22;;;19.20;99.90;;;;;;5011549;28;20041;-73
2022/09/11 09:20:19;;;;;;;0.10;0.10;;;19.10;99.90;;;;;;5013754;28;20129;-73
2022/09/11 09:23:02;;;;;;;0.00;0.00;;;19.10;99.90;;;;;;5013010;28;20061;-73
2022/09/11 09:25:29;;;;;;;0.93;0.30;;;19.10;99.90;;;;;;4997309;28;20096;-73
2022/09/11 09:28:02;;;;;;;0.00;0.00;;;18.90;99.90;;;;;;4993829;28;20053;-73
2022/09/11 09:30:37;;;;;;;0.00;0.00;;;18.80;99.90;;;;;;4991807;28;20084;-73
2022/09/11 09:33:14;;;;;;;0.00;0.00;;;18.80;99.90;;;;;;4998939;28;20100;-73
2022/09/11 09:35:42;;;;;;;0.40;0.35;;;18.70;99.90;;;;;;4993842;28;20088;-73
2022/09/11 09:38:18;;;;;;;0.10;0.10;;;18.60;99.90;;;;;;4991169;28;20054;-73
2022/09/11 09:41:15;;;;;;;0.03;0.03;;;18.60;99.90;;;;;;5005359;28;20650;-73
2022/09/11 09:44:12;;;;;;;0.40;0.40;;;19.20;99.90;;;;;;5013147;28;20053;-73
2022/09/11 09:46:44;;;;;;;0.00;0.00;;;19.30;99.90;;;;;;5009842;28;20383;-73
2022/09/11 09:49:13;;;;;;;0.00;0.00;;;19.30;99.90;;;;;;5012741;28;20045;-73
2022/09/11 09:51:39;;;;;;;0.00;0.00;;;19.20;99.90;;;;;;5011057;28;20081;-73
2022/09/11 09:54:08;;;;;;;0.25;0.22;;;19.50;99.90;;;;;;5012803;28;20139;-73
2022/09/11 09:56:36;;;;;;;0.10;0.10;;;20.20;99.90;;;;;;5008278;28;20084;-73
2022/09/11 09:59:12;;;;;;;0.15;0.15;;;21.20;99.90;;;;;;5011080;28;20054;-73
2022/09/11 10:01:43;;;;;;;0.93;0.63;;;22.10;99.90;;;;;;5006756;28;20563;-72
2022/09/11 10:04:29;;;;;;;0.10;0.10;;;22.90;99.90;;;;;;5011058;28;20128;-73
2022/09/11 10:07:28;;;;;;;0.10;0.10;;;23.60;99.90;;;;;;5010015;28;20053;-72
2022/09/11 10:10:02;;;;;;;0.10;0.10;;;23.90;99.90;;;;;;5000787;28;20156;-72
2022/09/11 10:12:30;;;;;;;0.43;0.30;;;24.00;99.90;;;;;;5009302;28;20096;-72
2022/09/11 10:14:58;;;;;;;0.00;0.00;;;23.90;99.90;;;;;;5010822;28;20064;-72
2022/09/11 10:17:35;;;;;;;0.00;0.00;;;24.00;99.90;;;;;;5008751;28;20061;-72
2022/09/11 10:20:21;;;;;;;0.15;0.15;;;23.80;99.90;;;;;;5011888;28;20037;-72
2022/09/11 10:22:51;;;;;;;0.03;0.03;;;23.70;99.90;;;;;;5010377;28;20057;-72
2022/09/11 10:25:28;;;;;;;0.10;0.10;;;23.40;99.90;;;;;;5011686;28;20053;-72
2022/09/11 10:28:02;;;;;;;0.00;0.00;;;23.40;99.90;;;;;;4998091;28;20133;-71
2022/09/11 10:30:30;;;;;;;0.00;0.00;;;23.40;99.90;;;;;;4992816;28;20039;-71
2022/09/11 10:32:57;;;;;;;0.00;0.00;;;23.40;99.90;;;;;;4996741;28;20041;-71
2022/09/11 10:35:25;;;;;;;0.00;0.00;;;23.40;99.90;;;;;;4992337;28;20050;-71
2022/09/11 10:38:01;;;;;;;0.00;0.00;;;23.50;99.90;;;;;;5005458;28;20042;-71
2022/09/11 10:40:27;;;;;;;0.10;0.10;;;23.10;99.90;;;;;;5011073;28;20053;-72
2022/09/11 10:42:53;;;;;;;0.00;0.00;;;22.90;99.90;;;;;;5008004;28;20038;-72
2022/09/11 10:45:21;;;;;;;0.10;0.10;;;23.10;99.90;;;;;;4991814;28;20069;-72
2022/09/11 10:47:47;;;;;;;0.10;0.10;;;23.40;99.90;;;;;;4990654;28;20057;-72
2022/09/11 10:50:16;;;;;;;0.00;0.00;;;23.40;99.90;;;;;;4992150;28;20402;-72
2022/09/11 10:52:56;;;;;;;0.25;0.25;;;23.30;99.90;;;;;;4990290;28;20056;-72
2022/09/11 10:55:25;;;;;;;0.00;0.00;;;23.00;99.90;;;;;;4991329;28;20121;-72
2022/09/11 10:57:53;;;;;;;0.00;0.00;;;23.40;99.90;;;;;;4994795;28;20042;-72
2022/09/11 11:00:30;;;;;;;0.00;0.00;;;23.60;99.90;;;;;;5010900;28;20066;-72
2022/09/11 11:03:05;;;;;;;0.00;0.00;;;23.80;99.90;;;;;;5010932;28;20057;-72
2022/09/11 11:05:58;;;;;;;0.55;0.55;;;24.00;99.90;;;;;;5009695;28;20440;-72
2022/09/11 11:08:45;;;;;;;0.10;0.10;;;24.00;99.90;;;;;;4991148;28;20054;-72
2022/09/11 11:11:14;;;;;;;0.00;0.00;;;24.00;99.90;;;;;;4994377;28;20049;-72
2022/09/11 11:14:16;;;;;;;0.00;0.00;;;23.70;99.90;;;;;;5011353;28;20478;-72
2022/09/11 11:17:12;;;;;;;0.10;0.10;;;23.20;99.90;;;;;;5009688;28;20099;-72
2022/09/11 11:20:06;;;;;;;0.00;0.00;;;22.90;99.90;;;;;;4990242;28;20463;-72
2022/09/11 11:22:58;;;;;;;0.20;0.20;;;22.60;99.90;;;;;;4991360;28;20039;-72
2022/09/11 11:25:49;;;;;;;0.00;0.00;;;22.40;99.90;;;;;;4994488;28;20836;-72
2022/09/11 11:28:42;;;;;;;0.00;0.00;;;22.20;99.90;;;;;;5011201;28;20057;-72
2022/09/11 11:31:38;;;;;;;0.17;0.17;;;22.00;99.90;;;;;;5006629;28;20052;-72
2022/09/11 11:34:22;;;;;;;0.10;0.10;;;22.40;99.90;;;;;;4995982;28;20038;-72
2022/09/11 11:37:22;;;;;;;0.00;0.00;;;23.10;99.90;;;;;;5010886;28;20042;-72
2022/09/11 11:40:03;;;;;;;0.00;0.00;;;23.40;99.90;;;;;;5008717;28;20113;-72
2022/09/11 11:42:36;;;;;;;0.00;0.00;;;23.20;99.90;;;;;;4990312;28;20050;-72
2022/09/11 11:45:20;;;;;;;0.13;0.13;;;23.10;99.90;;;;;;4990719;28;20494;-72
2022/09/11 11:47:47;;;;;;;0.30;0.30;;;22.90;99.90;;;;;;4997879;28;20550;-72
2022/09/11 11:50:34;;;;;;;0.00;0.00;;;22.80;99.90;;;;;;4997499;28;20058;-72
2022/09/11 11:53:31;;;;;;;0.00;0.00;;;22.70;99.90;;;;;;5001599;28;20115;-72
2022/09/11 11:56:00;;;;;;;0.10;0.10;;;22.50;99.90;;;;;;5011239;28;20548;-72
2022/09/11 11:58:37;;;;;;;0.05;0.05;;;22.30;99.90;;;;;;4990728;28;20043;-72
2022/09/11 12:01:09;;;;;;;0.00;0.00;;;22.20;99.90;;;;;;4989831;28;20050;-72
2022/09/11 12:03:45;;;;;;;0.00;0.00;;;22.00;99.90;;;;;;4991478;28;20053;-72
2022/09/11 12:06:11;;;;;;;0.10;0.10;;;21.90;99.90;;;;;;4998971;28;20042;-72
2022/09/11 12:08:56;;;;;;;1.77;0.98;;;21.90;99.90;;;;;;5011066;28;20050;-72
2022/09/11 12:11:30;;;;;;;0.00;0.00;;;22.20;99.90;;;;;;5002057;28;20030;-72
2022/09/11 12:13:57;;;;;;;0.00;0.00;;;22.20;99.90;;;;;;4991592;28;20046;-71
2022/09/11 12:16:33;;;;;;;0.10;0.10;;;22.40;99.90;;;;;;4990951;28;20038;-72
2022/09/11 12:19:16;;;;;;;0.10;0.10;;;23.10;99.90;;;;;;4989127;28;20068;-72
2022/09/11 12:21:53;;;;;;;0.00;0.00;;;23.70;99.90;;;;;;4990775;28;20109;-72
2022/09/11 12:24:43;;;;;;;0.22;0.10;;;24.30;99.90;;;;;;4990641;28;20049;-72
2022/09/11 12:27:34;;;;;;;0.00;0.00;;;24.50;99.90;;;;;;4989655;28;20057;-72
2022/09/11 12:30:14;;;;;;;0.00;0.00;;;24.50;99.90;;;;;;4987838;28;20137;-72
2022/09/11 12:32:55;;;;;;;0.00;0.00;;;24.00;99.90;;;;;;4995595;28;20069;-72
2022/09/11 12:35:46;;;;;;;0.00;0.00;;;23.70;99.90;;;;;;4988783;28;20054;-72
2022/09/11 12:38:24;;;;;;;0.10;0.10;;;23.40;99.90;;;;;;4993731;28;20053;-72
2022/09/11 12:41:06;;;;;;;0.00;0.00;;;23.10;99.90;;;;;;4993315;28;20480;-72
2022/09/11 12:43:34;;;;;;;0.00;0.00;;;22.90;99.90;;;;;;4993656;28;20050;-72
2022/09/11 12:46:02;;;;;;;0.00;0.00;;;23.70;99.90;;;;;;4993670;28;20042;-73
2022/09/11 12:48:38;;;;;;;0.00;0.00;;;24.30;99.90;;;;;;4994047;28;20089;-72
2022/09/11 12:51:15;;;;;;;0.30;0.10;;;24.90;99.90;;;;;;5000283;28;20112;-73
2022/09/11 12:53:44;;;;;;;0.00;0.00;;;25.30;99.90;;;;;;5012426;28;20095;-73
2022/09/11 12:56:18;;;;;;;0.00;0.00;;;25.40;99.90;;;;;;5013783;28;20042;-73
2022/09/11 12:58:46;;;;;;;0.00;0.00;;;24.90;99.90;;;;;;4994038;28;20053;-72
2022/09/11 13:01:31;;;;;;;0.10;0.10;;;25.20;99.90;;;;;;4992793;28;20808;-72
2022/09/11 13:04:02;;;;;;;0.00;0.00;;;25.50;99.90;;;;;;5005953;28;20671;-73
2022/09/11 13:06:50;;;;;;;0.00;0.00;;;25.80;99.90;;;;;;5013561;28;20088;-72
2022/09/11 13:09:38;;;;;;;0.00;0.00;;;26.00;99.90;;;;;;5010665;28;20046;-72
2022/09/11 13:12:25;;;;;;;0.00;0.00;;;26.20;99.90;;;;;;4993874;28;20045;-72